sensor_id;sensor_type;location;lat;lon;timestamp;pressure;altitude;pressure_sealevel;temperature;humidity
74163;BME280;62515;52.758;5.076;2024-03-02T09:20:02;100106.19;;;12.94;100.00
74163;BME280;62515;52.758;5.076;2024-03-02T09:22:29;100104.53;;;13.13;100.00
74163;BME280;62515;52.758;5.076;2024-03-02T09:25:01;100109.00;;;13.22;100.00
74163;BME280;62515;52.758;5.076;2024-03-02T09:27:31;100118.31;;;12.79;100.00
74163;BME280;62515;52.758;5.076;2024-03-02T09:29:58;100090.38;;;12.54;100.00
74163;BME280;62515;52.758;5.076;2024-03-02T09:35:32;100124.41;;;13.47;100.00
74163;BME280;62515;52.758;5.076;2024-03-02T09:38:19;100124.06;;;13.23;100.00
74163;BME280;62515;52.758;5.076;2024-03-02T09:41:14;100128.06;;;13.46;100.00
74163;BME280;62515;52.758;5.076;2024-03-02T09:43:49;100102.63;;;11.68;100.00
74163;BME280;62515;52.758;5.076;2024-03-02T09:46:16;100124.91;;;11.87;100.00
74163;BME280;62515;52.758;5.076;2024-03-02T09:48:44;100108.75;;;12.86;100.00
74163;BME280;62515;52.758;5.076;2024-03-02T09:51:14;100133.66;;;13.89;100.00
74163;BME280;62515;52.758;5.076;2024-03-02T10:26:16;100130.09;;;13.25;100.00
74163;BME280;62515;52.758;5.076;2024-03-02T10:28:46;100091.53;;;13.27;100.00
74163;BME280;62515;52.758;5.076;2024-03-02T10:31:14;100117.16;;;13.20;100.00
74163;BME280;62515;52.758;5.076;2024-03-02T10:33:41;100114.44;;;13.76;100.00
74163;BME280;62515;52.758;5.076;2024-03-02T10:36:09;100120.44;;;13.88;100.00
74163;BME280;62515;52.758;5.076;2024-03-02T10:38:37;100123.28;;;13.40;100.00
74163;BME280;62515;52.758;5.076;2024-03-02T10:41:07;100131.44;;;14.12;100.00
74163;BME280;62515;52.758;5.076;2024-03-02T10:43:35;100124.56;;;13.73;100.00
74163;BME280;62515;52.758;5.076;2024-03-02T10:46:03;100128.75;;;14.39;100.00
74163;BME280;62515;52.758;5.076;2024-03-02T10:48:39;100128.00;;;13.65;100.00
74163;BME280;62515;52.758;5.076;2024-03-02T10:51:09;100131.69;;;13.54;100.00
74163;BME280;62515;52.758;5.076;2024-03-02T10:53:44;100127.72;;;13.95;100.00
74163;BME280;62515;52.758;5.076;2024-03-02T10:56:27;100133.06;;;13.95;100.00
74163;BME280;62515;52.758;5.076;2024-03-02T10:59:02;100119.19;;;14.09;100.00
74163;BME280;62515;52.758;5.076;2024-03-02T11:01:32;100142.91;;;14.67;100.00
74163;BME280;62515;52.758;5.076;2024-03-02T11:15:18;100127.75;;;15.37;100.00
74163;BME280;62515;52.758;5.076;2024-03-02T11:17:46;100120.56;;;15.11;100.00
74163;BME280;62515;52.758;5.076;2024-03-02T11:20:15;100110.31;;;14.89;100.00
74163;BME280;62515;52.758;5.076;2024-03-02T11:22:42;100124.09;;;14.94;100.00
74163;BME280;62515;52.758;5.076;2024-03-02T11:25:23;100124.91;;;16.40;100.00
74163;BME280;62515;52.758;5.076;2024-03-02T11:28:01;100133.38;;;14.64;100.00
74163;BME280;62515;52.758;5.076;2024-03-02T11:30:52;100112.53;;;15.37;100.00
74163;BME280;62515;52.758;5.076;2024-03-02T11:33:24;100121.69;;;15.35;100.00
74163;BME280;62515;52.758;5.076;2024-03-02T11:35:52;100119.53;;;15.12;100.00
74163;BME280;62515;52.758;5.076;2024-03-02T11:38:20;100109.72;;;14.78;100.00
74163;BME280;62515;52.758;5.076;2024-03-02T11:40:47;100118.91;;;14.75;100.00
74163;BME280;62515;52.758;5.076;2024-03-02T11:43:14;100116.00;;;14.51;100.00
74163;BME280;62515;52.758;5.076;2024-03-02T11:45:43;100109.63;;;14.70;100.00
74163;BME280;62515;52.758;5.076;2024-03-02T11:48:14;100114.66;;;15.85;100.00
74163;BME280;62515;52.758;5.076;2024-03-02T11:50:46;100103.41;;;15.04;100.00
74163;BME280;62515;52.758;5.076;2024-03-02T11:53:14;100074.88;;;15.47;100.00
74163;BME280;62515;52.758;5.076;2024-03-02T11:55:42;100098.81;;;15.66;100.00
74163;BME280;62515;52.758;5.076;2024-03-02T11:58:09;100110.38;;;14.80;100.00
74163;BME280;62515;52.758;5.076;2024-03-02T12:00:37;100102.06;;;15.26;100.00
74163;BME280;62515;52.758;5.076;2024-03-02T12:03:05;100106.69;;;14.73;100.00
74163;BME280;62515;52.758;5.076;2024-03-02T12:05:35;100106.19;;;14.77;100.00
74163;BME280;62515;52.758;5.076;2024-03-02T12:08:04;100113.69;;;14.91;100.00
74163;BME280;62515;52.758;5.076;2024-03-02T12:10:32;100105.44;;;15.54;100.00
74163;BME280;62515;52.758;5.076;2024-03-02T12:13:01;100105.66;;;16.02;100.00
74163;BME280;62515;52.758;5.076;2024-03-02T12:15:30;100100.63;;;15.40;100.00
74163;BME280;62515;52.758;5.076;2024-03-02T12:18:00;100094.13;;;14.99;100.00
74163;BME280;62515;52.758;5.076;2024-03-02T12:20:29;100094.22;;;15.07;100.00
74163;BME280;62515;52.758;5.076;2024-03-02T12:22:59;100088.59;;;14.92;100.00
74163;BME280;62515;52.758;5.076;2024-03-02T12:25:27;100097.78;;;14.37;100.00
74163;BME280;62515;52.758;5.076;2024-03-02T12:27:55;100095.47;;;14.95;100.00
74163;BME280;62515;52.758;5.076;2024-03-02T12:30:23;100084.63;;;14.61;100.00
74163;BME280;62515;52.758;5.076;2024-03-02T12:32:51;100072.00;;;14.53;100.00
74163;BME280;62515;52.758;5.076;2024-03-02T12:35:18;100077.22;;;14.73;100.00
74163;BME280;62515;52.758;5.076;2024-03-02T12:37:47;100087.75;;;14.92;100.00
74163;BME280;62515;52.758;5.076;2024-03-02T12:40:18;100080.34;;;16.13;100.00
74163;BME280;62515;52.758;5.076;2024-03-02T12:42:46;100076.38;;;14.72;100.00
74163;BME280;62515;52.758;5.076;2024-03-02T12:45:16;100092.81;;;14.59;100.00
74163;BME280;62515;52.758;5.076;2024-03-02T12:47:43;100050.75;;;14.52;100.00
74163;BME280;62515;52.758;5.076;2024-03-02T12:50:12;100086.69;;;15.96;100.00
74163;BME280;62515;52.758;5.076;2024-03-02T12:52:39;100077.88;;;14.57;100.00
74163;BME280;62515;52.758;5.076;2024-03-02T12:55:06;100064.00;;;15.23;100.00
74163;BME280;62515;52.758;5.076;2024-03-02T12:57:36;100051.38;;;14.19;100.00
74163;BME280;62515;52.758;5.076;2024-03-02T13:00:06;100033.53;;;13.92;100.00
74163;BME280;62515;52.758;5.076;2024-03-02T13:02:35;100064.88;;;14.27;100.00
74163;BME280;62515;52.758;5.076;2024-03-02T13:05:03;100056.38;;;14.31;100.00
74163;BME280;62515;52.758;5.076;2024-03-02T13:07:34;100064.03;;;14.61;100.00
74163;BME280;62515;52.758;5.076;2024-03-02T13:10:02;100056.00;;;14.44;100.00
74163;BME280;62515;52.758;5.076;2024-03-02T13:12:30;100032.72;;;15.31;100.00
74163;BME280;62515;52.758;5.076;2024-03-02T13:15:00;100029.19;;;15.56;100.00
74163;BME280;62515;52.758;5.076;2024-03-02T13:17:27;100050.91;;;16.61;100.00
74163;BME280;62515;52.758;5.076;2024-03-02T13:20:03;100042.41;;;16.00;100.00
74163;BME280;62515;52.758;5.076;2024-03-02T13:22:30;100045.03;;;15.76;100.00
74163;BME280;62515;52.758;5.076;2024-03-02T13:24:58;100053.94;;;15.84;100.00
74163;BME280;62515;52.758;5.076;2024-03-02T13:27:26;100026.88;;;15.36;100.00
74163;BME280;62515;52.758;5.076;2024-03-02T13:29:54;100048.91;;;14.52;100.00
74163;BME280;62515;52.758;5.076;2024-03-02T13:32:23;100052.38;;;14.88;100.00
74163;BME280;62515;52.758;5.076;2024-03-02T13:34:51;100050.06;;;16.45;100.00
74163;BME280;62515;52.758;5.076;2024-03-02T13:37:20;100041.81;;;15.12;100.00
74163;BME280;62515;52.758;5.076;2024-03-02T13:39:48;100028.03;;;14.56;100.00
74163;BME280;62515;52.758;5.076;2024-03-02T13:42:16;100021.41;;;14.68;100.00
74163;BME280;62515;52.758;5.076;2024-03-02T13:44:44;100039.03;;;15.22;100.00
74163;BME280;62515;52.758;5.076;2024-03-02T13:47:12;100039.31;;;14.85;100.00
74163;BME280;62515;52.758;5.076;2024-03-02T13:49:41;99993.78;;;15.19;100.00
74163;BME280;62515;52.758;5.076;2024-03-02T13:52:09;100040.84;;;14.70;100.00
74163;BME280;62515;52.758;5.076;2024-03-02T13:54:37;100046.50;;;14.67;100.00
74163;BME280;62515;52.758;5.076;2024-03-02T13:57:05;100039.81;;;16.32;100.00
74163;BME280;62515;52.758;5.076;2024-03-02T13:59:32;100046.69;;;14.48;100.00
74163;BME280;62515;52.758;5.076;2024-03-02T14:02:00;100053.16;;;15.06;100.00
74163;BME280;62515;52.758;5.076;2024-03-02T14:04:28;100043.81;;;14.32;100.00
74163;BME280;62515;52.758;5.076;2024-03-02T14:06:57;100047.78;;;15.32;100.00
74163;BME280;62515;52.758;5.076;2024-03-02T14:09:25;100039.66;;;14.90;100.00
74163;BME280;62515;52.758;5.076;2024-03-02T14:11:53;100043.16;;;16.42;100.00
74163;BME280;62515;52.758;5.076;2024-03-02T14:14:21;100041.03;;;14.94;100.00
74163;BME280;62515;52.758;5.076;2024-03-02T14:16:49;100043.09;;;16.10;100.00
74163;BME280;62515;52.758;5.076;2024-03-02T14:19:16;100043.91;;;14.75;100.00
74163;BME280;62515;52.758;5.076;2024-03-02T14:21:43;100038.28;;;15.12;100.00
74163;BME280;62515;52.758;5.076;2024-03-02T14:24:12;100028.09;;;15.15;100.00
74163;BME280;62515;52.758;5.076;2024-03-02T14:26:40;100028.88;;;15.34;100.00
74163;BME280;62515;52.758;5.076;2024-03-02T14:29:07;100019.34;;;15.39;100.00
74163;BME280;62515;52.758;5.076;2024-03-02T14:31:34;100013.78;;;16.25;100.00
74163;BME280;62515;52.758;5.076;2024-03-02T14:34:02;100013.06;;;15.48;100.00
74163;BME280;62515;52.758;5.076;2024-03-02T14:36:30;100004.78;;;15.08;100.00
74163;BME280;62515;52.758;5.076;2024-03-02T14:38:58;99996.69;;;14.74;100.00
74163;BME280;62515;52.758;5.076;2024-03-02T14:41:26;100006.34;;;14.93;100.00
74163;BME280;62515;52.758;5.076;2024-03-02T14:43:55;99988.88;;;15.40;100.00
74163;BME280;62515;52.758;5.076;2024-03-02T14:46:23;99999.28;;;15.43;100.00
74163;BME280;62515;52.758;5.076;2024-03-02T14:48:50;99998.38;;;15.35;100.00
74163;BME280;62515;52.758;5.076;2024-03-02T14:51:18;99999.41;;;15.42;100.00
74163;BME280;62515;52.758;5.076;2024-03-02T16:38:05;99948.22;;;13.36;100.00
74163;BME280;62515;52.758;5.076;2024-03-02T16:40:33;99933.25;;;13.16;100.00
74163;BME280;62515;52.758;5.076;2024-03-02T16:43:00;99952.81;;;13.06;100.00
74163;BME280;62515;52.758;5.076;2024-03-02T16:45:28;99944.31;;;13.21;100.00
74163;BME280;62515;52.758;5.076;2024-03-02T16:47:55;99956.47;;;13.05;100.00
74163;BME280;62515;52.758;5.076;2024-03-02T16:50:22;99957.22;;;12.88;100.00
74163;BME280;62515;52.758;5.076;2024-03-02T16:52:49;99954.53;;;15.02;100.00
74163;BME280;62515;52.758;5.076;2024-03-02T16:55:18;99957.38;;;13.24;100.00
74163;BME280;62515;52.758;5.076;2024-03-02T16:57:46;99948.34;;;12.97;100.00
74163;BME280;62515;52.758;5.076;2024-03-02T17:00:14;99959.50;;;13.20;100.00
74163;BME280;62515;52.758;5.076;2024-03-02T17:02:41;99941.66;;;13.21;100.00
74163;BME280;62515;52.758;5.076;2024-03-02T17:05:09;99955.38;;;13.35;100.00
74163;BME280;62515;52.758;5.076;2024-03-02T17:07:36;99951.31;;;13.58;100.00
74163;BME280;62515;52.758;5.076;2024-03-02T17:10:04;99941.22;;;13.52;100.00
74163;BME280;62515;52.758;5.076;2024-03-02T17:12:33;99949.34;;;13.96;100.00
74163;BME280;62515;52.758;5.076;2024-03-02T17:15:01;99948.34;;;14.50;100.00
74163;BME280;62515;52.758;5.076;2024-03-02T17:17:28;99955.31;;;14.07;100.00
74163;BME280;62515;52.758;5.076;2024-03-02T17:19:55;99952.94;;;14.04;100.00
74163;BME280;62515;52.758;5.076;2024-03-02T17:22:22;99952.91;;;13.69;100.00
74163;BME280;62515;52.758;5.076;2024-03-02T17:24:50;99951.75;;;15.53;100.00
74163;BME280;62515;52.758;5.076;2024-03-02T17:27:17;99955.91;;;14.19;100.00
74163;BME280;62515;52.758;5.076;2024-03-02T17:29:46;99958.41;;;13.68;100.00
74163;BME280;62515;52.758;5.076;2024-03-02T17:32:13;99954.16;;;13.92;100.00
74163;BME280;62515;52.758;5.076;2024-03-02T17:34:41;99951.25;;;14.39;100.00
74163;BME280;62515;52.758;5.076;2024-03-02T17:37:08;99954.06;;;14.37;100.00
74163;BME280;62515;52.758;5.076;2024-03-02T17:39:36;99951.19;;;13.33;100.00
74163;BME280;62515;52.758;5.076;2024-03-02T17:42:04;99958.41;;;13.23;100.00
74163;BME280;62515;52.758;5.076;2024-03-02T17:44:31;99956.03;;;13.20;100.00
74163;BME280;62515;52.758;5.076;2024-03-02T17:47:01;99943.09;;;13.05;100.00
74163;BME280;62515;52.758;5.076;2024-03-02T17:49:30;99959.97;;;13.06;100.00
74163;BME280;62515;52.758;5.076;2024-03-02T17:51:57;99949.38;;;12.87;100.00
74163;BME280;62515;52.758;5.076;2024-03-02T17:54:25;99941.78;;;12.82;100.00
74163;BME280;62515;52.758;5.076;2024-03-02T18:22:35;99966.00;;;13.45;100.00
74163;BME280;62515;52.758;5.076;2024-03-02T18:25:03;99973.28;;;13.97;100.00
74163;BME280;62515;52.758;5.076;2024-03-02T18:27:40;99958.31;;;14.65;100.00
74163;BME280;62515;52.758;5.076;2024-03-02T18:30:09;99956.50;;;14.74;100.00
74163;BME280;62515;52.758;5.076;2024-03-02T18:32:37;99957.59;;;13.40;100.00
74163;BME280;62515;52.758;5.076;2024-03-02T18:35:06;99964.69;;;13.76;100.00
74163;BME280;62515;52.758;5.076;2024-03-02T18:37:36;99971.47;;;13.71;100.00
74163;BME280;62515;52.758;5.076;2024-03-02T18:40:05;99968.91;;;13.24;100.00
74163;BME280;62515;52.758;5.076;2024-03-02T18:42:32;99963.34;;;14.43;100.00
74163;BME280;62515;52.758;5.076;2024-03-02T18:45:00;99966.22;;;13.96;100.00
74163;BME280;62515;52.758;5.076;2024-03-02T18:47:28;99942.69;;;13.65;100.00
74163;BME280;62515;52.758;5.076;2024-03-02T18:49:56;99959.28;;;13.41;100.00
74163;BME280;62515;52.758;5.076;2024-03-02T18:52:26;99960.19;;;13.32;100.00
74163;BME280;62515;52.758;5.076;2024-03-02T18:54:56;99959.53;;;13.47;100.00
74163;BME280;62515;52.758;5.076;2024-03-02T18:57:24;99954.63;;;13.16;100.00
74163;BME280;62515;52.758;5.076;2024-03-02T18:59:51;99955.22;;;13.09;100.00
74163;BME280;62515;52.758;5.076;2024-03-02T19:02:21;99952.84;;;13.79;100.00
74163;BME280;62515;52.758;5.076;2024-03-02T19:04:48;99954.16;;;12.83;100.00
74163;BME280;62515;52.758;5.076;2024-03-02T19:07:15;99953.28;;;12.92;100.00
74163;BME280;62515;52.758;5.076;2024-03-02T19:09:43;99951.50;;;12.83;100.00
74163;BME280;62515;52.758;5.076;2024-03-02T19:12:12;99951.78;;;14.68;100.00
74163;BME280;62515;52.758;5.076;2024-03-02T19:14:39;99958.00;;;14.07;100.00
74163;BME280;62515;52.758;5.076;2024-03-02T19:17:07;99955.69;;;13.32;100.00
74163;BME280;62515;52.758;5.076;2024-03-02T19:19:35;99955.56;;;14.57;100.00
74163;BME280;62515;52.758;5.076;2024-03-02T19:22:02;99951.53;;;13.10;100.00
74163;BME280;62515;52.758;5.076;2024-03-02T19:24:37;99952.66;;;13.08;100.00
74163;BME280;62515;52.758;5.076;2024-03-02T19:27:05;99947.97;;;13.29;100.00
74163;BME280;62515;52.758;5.076;2024-03-02T19:29:34;99955.31;;;13.45;100.00
74163;BME280;62515;52.758;5.076;2024-03-02T19:32:02;99950.03;;;13.98;100.00
74163;BME280;62515;52.758;5.076;2024-03-02T19:34:38;99954.38;;;12.99;100.00
74163;BME280;62515;52.758;5.076;2024-03-02T19:37:05;99937.25;;;14.09;100.00
74163;BME280;62515;52.758;5.076;2024-03-02T21:10:18;99907.63;;;12.39;100.00
74163;BME280;62515;52.758;5.076;2024-03-02T21:12:47;99911.94;;;12.96;100.00
74163;BME280;62515;52.758;5.076;2024-03-02T21:15:14;99921.47;;;12.62;100.00
74163;BME280;62515;52.758;5.076;2024-03-02T21:17:42;99910.94;;;11.95;100.00
74163;BME280;62515;52.758;5.076;2024-03-02T21:20:10;99906.69;;;12.77;100.00
74163;BME280;62515;52.758;5.076;2024-03-02T21:22:38;99921.84;;;13.14;100.00
74163;BME280;62515;52.758;5.076;2024-03-02T21:25:07;99922.78;;;12.39;100.00
74163;BME280;62515;52.758;5.076;2024-03-02T21:27:36;99928.13;;;12.39;100.00
74163;BME280;62515;52.758;5.076;2024-03-02T21:30:05;99928.75;;;12.04;100.00
74163;BME280;62515;52.758;5.076;2024-03-02T21:32:32;99922.28;;;11.78;100.00
74163;BME280;62515;52.758;5.076;2024-03-02T21:35:00;99919.75;;;12.05;100.00
74163;BME280;62515;52.758;5.076;2024-03-02T21:37:27;99921.75;;;12.13;100.00
74163;BME280;62515;52.758;5.076;2024-03-02T21:39:55;99923.00;;;12.09;100.00
74163;BME280;62515;52.758;5.076;2024-03-02T21:42:23;99921.16;;;12.19;100.00
74163;BME280;62515;52.758;5.076;2024-03-02T21:44:52;99912.03;;;12.12;100.00
74163;BME280;62515;52.758;5.076;2024-03-02T21:47:19;99927.91;;;12.03;100.00
74163;BME280;62515;52.758;5.076;2024-03-02T21:49:47;99929.19;;;12.09;100.00
74163;BME280;62515;52.758;5.076;2024-03-02T21:52:15;99930.22;;;12.91;100.00
74163;BME280;62515;52.758;5.076;2024-03-02T21:54:44;99925.25;;;12.69;100.00
74163;BME280;62515;52.758;5.076;2024-03-02T21:57:12;99931.56;;;12.02;100.00
74163;BME280;62515;52.758;5.076;2024-03-02T21:59:41;99937.44;;;12.35;100.00
74163;BME280;62515;52.758;5.076;2024-03-02T22:02:10;99938.72;;;12.77;100.00
74163;BME280;62515;52.758;5.076;2024-03-02T22:04:40;99941.41;;;13.04;100.00
74163;BME280;62515;52.758;5.076;2024-03-02T22:07:09;99937.84;;;12.86;100.00
74163;BME280;62515;52.758;5.076;2024-03-02T22:09:37;99937.84;;;12.30;100.00
74163;BME280;62515;52.758;5.076;2024-03-02T22:12:05;99927.16;;;12.86;100.00
74163;BME280;62515;52.758;5.076;2024-03-02T22:14:34;99935.31;;;11.71;100.00
74163;BME280;62515;52.758;5.076;2024-03-02T22:17:03;99933.81;;;12.73;100.00
74163;BME280;62515;52.758;5.076;2024-03-02T22:19:32;99934.97;;;12.97;100.00
74163;BME280;62515;52.758;5.076;2024-03-02T22:21:59;99938.97;;;13.48;100.00
74163;BME280;62515;52.758;5.076;2024-03-02T22:24:27;99939.53;;;12.87;100.00
74163;BME280;62515;52.758;5.076;2024-03-02T22:26:55;99948.28;;;12.80;100.00
74163;BME280;62515;52.758;5.076;2024-03-02T22:29:22;99940.13;;;12.72;100.00
74163;BME280;62515;52.758;5.076;2024-03-02T22:31:53;99941.31;;;12.96;100.00
74163;BME280;62515;52.758;5.076;2024-03-02T22:34:20;99932.81;;;12.83;100.00
74163;BME280;62515;52.758;5.076;2024-03-02T22:36:49;99934.75;;;12.81;100.00
74163;BME280;62515;52.758;5.076;2024-03-02T22:39:16;99936.91;;;11.83;100.00
74163;BME280;62515;52.758;5.076;2024-03-02T22:41:43;99919.44;;;11.50;100.00
74163;BME280;62515;52.758;5.076;2024-03-02T22:44:11;99944.81;;;11.54;100.00
74163;BME280;62515;52.758;5.076;2024-03-02T22:46:39;99949.25;;;11.44;100.00
74163;BME280;62515;52.758;5.076;2024-03-02T22:49:06;99939.97;;;12.17;100.00
74163;BME280;62515;52.758;5.076;2024-03-02T22:51:33;99943.84;;;11.65;100.00
74163;BME280;62515;52.758;5.076;2024-03-02T22:54:02;99929.63;;;12.70;100.00
74163;BME280;62515;52.758;5.076;2024-03-02T22:56:30;99930.00;;;11.71;100.00
74163;BME280;62515;52.758;5.076;2024-03-02T22:58:59;99951.75;;;11.86;100.00
74163;BME280;62515;52.758;5.076;2024-03-02T23:01:27;99949.38;;;12.12;100.00
74163;BME280;62515;52.758;5.076;2024-03-02T23:03:54;99951.69;;;12.63;100.00
74163;BME280;62515;52.758;5.076;2024-03-02T23:06:22;99929.22;;;12.55;100.00
74163;BME280;62515;52.758;5.076;2024-03-02T23:08:49;99947.00;;;12.09;100.00
74163;BME280;62515;52.758;5.076;2024-03-02T23:11:21;99956.69;;;12.29;100.00
74163;BME280;62515;52.758;5.076;2024-03-02T23:13:49;99955.41;;;12.14;100.00
74163;BME280;62515;52.758;5.076;2024-03-02T23:16:16;99955.84;;;11.99;100.00
74163;BME280;62515;52.758;5.076;2024-03-02T23:18:44;99953.47;;;11.96;100.00
74163;BME280;62515;52.758;5.076;2024-03-02T23:21:12;99956.53;;;11.82;100.00
74163;BME280;62515;52.758;5.076;2024-03-02T23:23:39;99957.78;;;11.78;100.00
74163;BME280;62515;52.758;5.076;2024-03-02T23:26:06;99958.13;;;11.64;100.00
74163;BME280;62515;52.758;5.076;2024-03-02T23:28:35;99953.47;;;11.96;100.00
74163;BME280;62515;52.758;5.076;2024-03-02T23:31:02;99954.28;;;12.06;100.00
74163;BME280;62515;52.758;5.076;2024-03-02T23:33:31;99944.44;;;12.36;100.00
74163;BME280;62515;52.758;5.076;2024-03-02T23:35:58;99947.75;;;13.40;100.00
74163;BME280;62515;52.758;5.076;2024-03-02T23:38:26;99935.81;;;13.97;100.00
74163;BME280;62515;52.758;5.076;2024-03-02T23:40:53;99946.16;;;13.47;100.00
74163;BME280;62515;52.758;5.076;2024-03-02T23:43:21;99939.06;;;13.56;100.00
